createdAt,value
2023-02-10T00:00:18.731Z,9.70
2023-02-10T00:03:21.411Z,9.07
2023-02-10T00:06:26.518Z,8.57
2023-02-10T00:09:29.192Z,10.10
2023-02-10T00:12:31.887Z,10.57
2023-02-10T00:15:35.903Z,9.83
2023-02-10T00:18:38.543Z,9.77
2023-02-10T00:21:41.295Z,10.47
2023-02-10T00:24:43.923Z,10.13
2023-02-10T00:27:46.561Z,10.50
2023-02-10T00:30:50.762Z,10.37
2023-02-10T00:33:53.444Z,9.83
2023-02-10T00:36:56.112Z,9.50
2023-02-10T00:40:00.567Z,9.33
2023-02-10T00:43:03.360Z,9.50
2023-02-10T00:46:08.203Z,9.93
2023-02-10T00:49:12.256Z,9.23
2023-02-10T00:52:14.895Z,10.37
2023-02-10T00:55:17.513Z,10.00
2023-02-10T00:58:20.165Z,8.87
2023-02-10T01:01:24.398Z,8.33
2023-02-10T01:04:27.181Z,9.43
2023-02-10T01:07:30.376Z,8.57
2023-02-10T01:10:35.705Z,8.43
2023-02-10T01:13:39.474Z,9.63
2023-02-10T01:16:43.747Z,9.53
2023-02-10T01:19:48.659Z,8.90
2023-02-10T01:22:51.740Z,8.90
2023-02-10T01:25:54.352Z,9.73
2023-02-10T01:28:57.053Z,9.63
2023-02-10T01:32:01.030Z,9.57
2023-02-10T01:35:03.796Z,8.27
2023-02-10T01:38:06.415Z,9.17
2023-02-10T01:41:10.501Z,9.93
2023-02-10T01:44:54.979Z,9.17
2023-02-10T01:47:59.357Z,8.33
2023-02-10T01:51:06.420Z,9.67
2023-02-10T01:54:34.839Z,8.90
2023-02-10T01:57:39.415Z,7.93
2023-02-10T02:00:42.279Z,8.70
2023-02-10T02:03:46.597Z,7.83
2023-02-10T02:06:50.224Z,8.47
2023-02-10T02:09:54.617Z,9.57
2023-02-10T02:13:00.545Z,9.07
2023-02-10T02:16:13.131Z,9.63
2023-02-10T02:19:42.963Z,9.83
2023-02-10T02:23:12.714Z,8.13
2023-02-10T02:26:47.723Z,9.77
2023-02-10T02:30:10.718Z,9.60
2023-02-10T02:33:20.350Z,8.83
2023-02-10T02:36:29.496Z,8.60
2023-02-10T02:39:32.202Z,9.30
2023-02-10T02:42:35.556Z,9.77
2023-02-10T02:45:51.020Z,8.67
2023-02-10T02:49:02.109Z,8.73
2023-02-10T02:52:07.665Z,9.60
2023-02-10T02:55:16.022Z,8.83
2023-02-10T02:58:22.524Z,8.90
2023-02-10T03:01:32.132Z,9.67
2023-02-10T03:04:37.049Z,7.77
2023-02-10T03:07:39.709Z,8.53
2023-02-10T03:10:42.412Z,9.40
2023-02-10T03:13:45.101Z,8.93
2023-02-10T03:16:48.287Z,8.93
2023-02-10T03:19:52.478Z,8.43
2023-02-10T03:22:55.136Z,9.37
2023-02-10T03:25:59.525Z,9.57
2023-02-10T03:29:02.204Z,8.67
2023-02-10T03:32:06.256Z,8.90
2023-02-10T03:35:10.426Z,8.37
2023-02-10T03:38:13.252Z,8.87
2023-02-10T03:41:16.018Z,9.70
2023-02-10T03:44:18.664Z,9.93
2023-02-10T03:47:21.448Z,9.00
2023-02-10T03:50:25.527Z,8.97
2023-02-10T03:53:29.876Z,8.20
2023-02-10T03:56:32.475Z,9.03
2023-02-10T03:59:35.547Z,8.83
2023-02-10T04:02:38.378Z,9.33
2023-02-10T04:05:42.807Z,8.73
2023-02-10T04:08:46.466Z,9.17
2023-02-10T04:11:49.254Z,9.33
2023-02-10T04:14:51.902Z,9.00
2023-02-10T04:17:54.638Z,8.67
2023-02-10T04:20:59.193Z,8.23
2023-02-10T04:24:01.874Z,9.33
2023-02-10T04:27:04.936Z,8.83
2023-02-10T04:30:08.764Z,9.90
2023-02-10T04:33:12.644Z,8.63
2023-02-10T04:36:16.713Z,9.00
2023-02-10T04:39:19.370Z,8.30
2023-02-10T04:42:30.728Z,7.90
2023-02-10T04:45:33.756Z,8.27
2023-02-10T04:48:36.622Z,10.63
2023-02-10T04:51:40.598Z,9.63
2023-02-10T04:54:43.363Z,10.70
2023-02-10T04:57:46.010Z,8.83
2023-02-10T05:00:48.694Z,8.60
2023-02-10T05:03:51.435Z,9.00
2023-02-10T05:06:59.122Z,9.07
2023-02-10T05:10:01.917Z,9.70
2023-02-10T05:13:04.910Z,10.40
2023-02-10T05:16:08.368Z,9.57
2023-02-10T05:19:24.644Z,9.60
2023-02-10T05:23:14.775Z,9.60
2023-02-10T05:27:15.416Z,9.30
2023-02-10T05:35:00.982Z,9.60
2023-02-10T05:42:59.521Z,10.47
2023-02-10T05:54:05.399Z,9.03
2023-02-10T06:17:29.083Z,9.43
2023-02-10T06:21:14.634Z,9.07
2023-02-10T06:25:12.354Z,8.70
2023-02-10T06:29:13.291Z,9.63
2023-02-10T06:37:24.199Z,10.50
2023-02-10T06:41:40.564Z,10.60
2023-02-10T06:45:43.094Z,10.07
2023-02-10T07:11:58.390Z,11.50
2023-02-10T07:15:13.284Z,10.37
2023-02-10T07:18:22.379Z,9.57
2023-02-10T07:29:58.724Z,9.40
2023-02-10T07:33:15.684Z,11.50
2023-02-10T07:44:07.436Z,10.53
2023-02-10T08:23:17.613Z,11.40
2023-02-10T08:31:27.675Z,10.63
2023-02-10T09:23:55.832Z,5.75
2023-02-10T09:49:00.053Z,11.83
2023-02-10T09:52:42.788Z,12.37
2023-02-10T09:56:26.184Z,13.83
2023-02-10T10:30:58.563Z,12.38
2023-02-10T10:34:18.958Z,14.52
2023-02-10T10:41:24.298Z,12.27
2023-02-10T10:48:54.997Z,13.57
2023-02-10T10:52:11.173Z,11.88
2023-02-10T10:59:08.044Z,12.00
2023-02-10T11:02:31.179Z,12.18
2023-02-10T11:06:20.008Z,11.63
2023-02-10T11:13:45.918Z,10.55
2023-02-10T11:17:14.535Z,9.57
2023-02-10T11:20:47.233Z,9.70
2023-02-10T11:24:39.933Z,10.38
2023-02-10T11:28:17.319Z,11.10
2023-02-10T11:32:12.818Z,12.05
2023-02-10T14:15:48.358Z,10.07
2023-02-10T14:24:50.734Z,11.13
2023-02-10T14:28:34.384Z,10.53
2023-02-10T15:09:56.689Z,10.13
2023-02-10T15:14:03.664Z,9.83
2023-02-10T15:17:38.189Z,10.10
2023-02-10T15:21:16.233Z,10.07
2023-02-10T15:25:25.255Z,9.43
2023-02-10T15:37:04.173Z,9.07
2023-02-10T15:40:51.144Z,11.73
2023-02-10T15:45:18.610Z,10.67
2023-02-10T15:48:39.399Z,10.13
2023-02-10T15:52:17.858Z,9.73
2023-02-10T15:55:43.260Z,9.67
2023-02-10T15:58:46.365Z,8.80
2023-02-10T16:01:50.411Z,8.27
2023-02-10T16:04:53.573Z,10.30
2023-02-10T16:08:05.017Z,8.93
2023-02-10T16:11:07.990Z,8.97
2023-02-10T16:14:10.645Z,9.20
2023-02-10T16:17:21.792Z,9.57
2023-02-10T16:20:28.107Z,9.70
2023-02-10T16:23:31.102Z,9.07
2023-02-10T16:26:33.813Z,9.77
2023-02-10T16:29:36.564Z,9.67
2023-02-10T16:32:40.651Z,9.00
2023-02-10T16:35:45.505Z,10.47
2023-02-10T16:38:51.590Z,9.10
2023-02-10T16:41:55.664Z,9.77
2023-02-10T16:44:58.343Z,8.43
2023-02-10T16:48:03.689Z,8.83
2023-02-10T16:51:07.157Z,9.60
2023-02-10T16:54:10.451Z,8.80
2023-02-10T16:57:13.369Z,8.40
2023-02-10T17:00:17.817Z,9.53
2023-02-10T17:03:23.424Z,8.70
2023-02-10T17:06:27.516Z,9.30
2023-02-10T17:09:30.242Z,8.63
2023-02-10T17:12:34.198Z,9.50
2023-02-10T17:15:37.052Z,10.70
2023-02-10T17:18:41.065Z,9.63
2023-02-10T17:21:44.844Z,9.10
2023-02-10T17:24:47.506Z,9.70
2023-02-10T17:37:26.986Z,9.50
2023-02-10T18:49:58.890Z,11.00
2023-02-10T18:53:46.566Z,10.67
2023-02-10T19:00:47.362Z,10.77
2023-02-10T19:09:06.837Z,11.77
2023-02-10T19:39:49.938Z,10.63
2023-02-10T20:03:08.321Z,10.67
2023-02-10T20:10:40.497Z,10.20
2023-02-10T20:14:20.678Z,10.60
2023-02-10T20:38:43.555Z,10.60
2023-02-10T20:42:39.851Z,10.90
2023-02-10T20:46:20.215Z,13.03
2023-02-10T20:49:36.608Z,12.80
2023-02-10T20:52:50.332Z,11.03
2023-02-10T21:13:40.598Z,9.47
2023-02-10T21:44:19.025Z,10.07
2023-02-10T21:48:06.091Z,10.93
2023-02-10T21:59:58.419Z,10.57
2023-02-10T22:03:46.618Z,10.93
2023-02-10T22:07:29.370Z,10.57
2023-02-10T22:10:44.494Z,10.67
2023-02-10T22:14:17.973Z,11.77
2023-02-10T22:18:08.983Z,11.10
2023-02-10T22:21:30.416Z,11.43
2023-02-10T22:32:51.685Z,11.53
2023-02-10T22:36:34.387Z,11.13
2023-02-10T22:40:18.056Z,9.43
2023-02-10T22:48:12.205Z,9.67
2023-02-10T22:52:03.112Z,9.67
2023-02-10T22:56:04.518Z,9.03
2023-02-10T22:59:55.181Z,9.33
2023-02-10T23:03:17.928Z,10.73
2023-02-10T23:06:27.676Z,9.47
2023-02-10T23:09:39.987Z,11.10
2023-02-10T23:12:48.577Z,9.07
2023-02-10T23:15:55.486Z,10.27
2023-02-10T23:19:11.791Z,10.00
2023-02-10T23:22:26.117Z,8.37
2023-02-10T23:25:46.347Z,9.03
2023-02-10T23:28:49.516Z,8.27
2023-02-10T23:31:52.646Z,9.07
2023-02-10T23:34:56.832Z,9.80
2023-02-10T23:37:59.892Z,8.57
2023-02-10T23:41:02.625Z,9.17
2023-02-10T23:44:06.839Z,8.53
2023-02-10T23:47:09.937Z,8.73
2023-02-10T23:50:14.053Z,8.30
2023-02-10T23:53:17.097Z,8.20
2023-02-10T23:56:22.419Z,9.83
2023-02-10T23:59:25.736Z,8.87
